Time;durP1;ratioP1;P1;durP2;ratioP2;P2;SDS_P1;SDS_P2;PMS_P1;PMS_P2;Temp;Humidity;BMP_temperature;BMP_pressure;BME280_temperature;BME280_humidity;BME280_pressure;Samples;Min_cycle;Max_cycle;Signal;HPM_P1;HPM_P2
2023/07/26 00:01:34;;;;;;;3.45;3.15;;;12.00;99.90;;;;;;4959179;28;20033;-78
2023/07/26 00:04:00;;;;;;;3.10;2.80;;;12.00;99.90;;;;;;4958483;28;20071;-78
2023/07/26 00:06:25;;;;;;;7.78;4.22;;;11.90;99.90;;;;;;4957017;28;20034;-78
2023/07/26 00:08:52;;;;;;;5.22;3.92;;;11.90;99.90;;;;;;4975375;28;20050;-78
2023/07/26 00:11:18;;;;;;;7.45;3.97;;;11.90;99.90;;;;;;4958822;28;20061;-78
2023/07/26 00:13:44;;;;;;;5.28;3.15;;;11.90;99.90;;;;;;4958404;28;20078;-78
2023/07/26 00:16:10;;;;;;;3.45;2.47;;;11.90;99.90;;;;;;4975131;28;20042;-78
2023/07/26 00:18:39;;;;;;;2.67;2.47;;;11.80;99.90;;;;;;4958741;28;20117;-78
2023/07/26 00:21:05;;;;;;;5.07;2.88;;;11.80;99.90;;;;;;4976391;28;20041;-78
2023/07/26 00:23:30;;;;;;;3.28;2.67;;;11.80;99.90;;;;;;4976046;28;20054;-78
2023/07/26 00:25:56;;;;;;;3.22;2.92;;;11.90;99.90;;;;;;4976078;28;20042;-79
2023/07/26 00:28:22;;;;;;;2.60;2.08;;;11.90;99.90;;;;;;4959121;28;20033;-78
2023/07/26 00:30:49;;;;;;;2.80;2.40;;;11.90;99.90;;;;;;4958733;28;20033;-78
2023/07/26 00:33:14;;;;;;;11.77;4.25;;;12.00;99.90;;;;;;4975528;28;20129;-78
2023/07/26 00:35:41;;;;;;;3.80;3.20;;;12.00;99.90;;;;;;4975049;28;20495;-78
2023/07/26 00:38:07;;;;;;;3.30;2.78;;;12.10;99.90;;;;;;4977206;28;20022;-78
2023/07/26 00:40:33;;;;;;;9.68;3.30;;;12.20;99.90;;;;;;4976814;28;20033;-79
2023/07/26 00:42:58;;;;;;;3.15;2.78;;;12.20;99.90;;;;;;4977156;28;20029;-78
2023/07/26 00:45:26;;;;;;;7.68;3.35;;;12.20;99.90;;;;;;4977686;28;20023;-78
2023/07/26 00:47:52;;;;;;;2.70;2.50;;;12.20;99.90;;;;;;4981980;28;20086;-78
2023/07/26 00:50:19;;;;;;;3.22;2.92;;;12.20;99.90;;;;;;4963545;28;20050;-78
2023/07/26 00:52:45;;;;;;;7.53;2.83;;;12.20;99.90;;;;;;4961418;28;20122;-78
2023/07/26 00:55:12;;;;;;;4.22;2.83;;;12.20;99.90;;;;;;4976070;28;20436;-78
2023/07/26 00:57:38;;;;;;;4.60;2.85;;;12.20;99.90;;;;;;4957040;28;20081;-78
2023/07/26 01:00:05;;;;;;;7.43;2.97;;;12.20;99.90;;;;;;4956715;28;20063;-78
2023/07/26 01:02:31;;;;;;;3.00;2.55;;;12.20;99.90;;;;;;4957547;28;20146;-78
2023/07/26 01:04:57;;;;;;;3.70;3.00;;;12.20;99.90;;;;;;4956921;28;20151;-78
2023/07/26 01:07:22;;;;;;;2.53;2.33;;;12.20;99.90;;;;;;4957394;28;20033;-78
2023/07/26 01:09:55;;;;;;;4.05;2.60;;;12.10;99.90;;;;;;4975158;28;20471;-78
2023/07/26 01:12:32;;;;;;;3.17;2.45;;;12.10;99.90;;;;;;4974931;28;20023;-78
2023/07/26 01:15:03;;;;;;;3.30;2.50;;;12.10;99.90;;;;;;4974637;28;20130;-78
2023/07/26 01:17:29;;;;;;;7.32;3.17;;;12.10;99.90;;;;;;4974505;28;20478;-78
2023/07/26 01:19:56;;;;;;;2.95;2.17;;;12.10;99.90;;;;;;4972575;28;20159;-78
2023/07/26 01:22:21;;;;;;;2.53;2.30;;;12.10;99.90;;;;;;4955389;28;20061;-78
2023/07/26 01:24:47;;;;;;;5.43;3.28;;;12.10;99.90;;;;;;4972083;28;20027;-79
2023/07/26 01:27:13;;;;;;;4.50;3.28;;;12.20;99.90;;;;;;4955059;28;20035;-78
2023/07/26 01:29:38;;;;;;;2.90;2.60;;;12.10;99.90;;;;;;4955229;28;20033;-78
2023/07/26 01:32:07;;;;;;;5.97;2.78;;;12.20;99.90;;;;;;4955191;28;20027;-79
2023/07/26 01:34:33;;;;;;;2.55;2.28;;;12.10;99.90;;;;;;4956310;28;20022;-78
2023/07/26 01:37:00;;;;;;;3.85;2.80;;;12.20;99.90;;;;;;4956083;28;20125;-78
2023/07/26 01:39:27;;;;;;;7.18;2.70;;;12.20;99.90;;;;;;4955478;28;20033;-78
2023/07/26 01:41:54;;;;;;;3.60;2.03;;;12.20;99.90;;;;;;4955694;28;20380;-78
2023/07/26 01:44:19;;;;;;;2.90;2.60;;;12.20;99.90;;;;;;4956189;28;20023;-78
2023/07/26 01:46:45;;;;;;;4.70;2.38;;;12.20;99.90;;;;;;4955310;28;20545;-79
2023/07/26 01:49:11;;;;;;;2.20;2.00;;;12.20;99.90;;;;;;4972599;28;20451;-79
2023/07/26 01:51:36;;;;;;;4.72;2.08;;;12.30;99.90;;;;;;4954898;28;20030;-78
2023/07/26 01:54:02;;;;;;;2.25;2.05;;;12.30;99.90;;;;;;4955300;28;20026;-79
2023/07/26 01:56:28;;;;;;;2.53;2.33;;;12.20;99.90;;;;;;4972560;28;20046;-79
2023/07/26 01:58:53;;;;;;;4.10;2.47;;;12.20;99.90;;;;;;4972265;28;20030;-79
2023/07/26 02:01:19;;;;;;;2.60;2.17;;;12.20;99.90;;;;;;4972516;28;20088;-78
2023/07/26 02:03:44;;;;;;;4.55;2.47;;;12.20;99.90;;;;;;4954847;28;20592;-78
2023/07/26 02:06:10;;;;;;;6.28;1.95;;;12.20;99.90;;;;;;4955012;28;20034;-78
2023/07/26 02:08:36;;;;;;;2.90;2.13;;;12.20;99.90;;;;;;4972454;28;20023;-78
2023/07/26 02:11:01;;;;;;;1.80;1.63;;;12.20;99.90;;;;;;4972588;28;20434;-79
2023/07/26 02:13:27;;;;;;;3.90;2.05;;;12.20;99.90;;;;;;4972998;28;20089;-78
2023/07/26 02:15:52;;;;;;;1.90;1.80;;;12.30;99.90;;;;;;4954893;28;20102;-79
2023/07/26 02:18:18;;;;;;;4.35;1.70;;;12.20;99.90;;;;;;4954629;28;20046;-78
2023/07/26 02:20:43;;;;;;;1.77;1.67;;;12.30;99.90;;;;;;4954866;28;20045;-78
2023/07/26 02:23:09;;;;;;;1.60;1.50;;;12.30;99.90;;;;;;4955049;28;20558;-79
2023/07/26 02:25:35;;;;;;;2.03;1.80;;;12.30;99.90;;;;;;4955299;28;20027;-79
2023/07/26 02:28:00;;;;;;;3.40;1.90;;;12.30;99.90;;;;;;4972020;28;20030;-79
2023/07/26 02:30:26;;;;;;;3.28;1.85;;;12.30;99.90;;;;;;4973284;28;20483;-78
2023/07/26 02:32:51;;;;;;;2.05;1.80;;;12.30;99.90;;;;;;4976921;28;20484;-79
2023/07/26 02:35:17;;;;;;;2.33;2.13;;;12.30;99.90;;;;;;4978048;28;20426;-79
2023/07/26 02:37:43;;;;;;;2.75;1.85;;;12.30;99.90;;;;;;4959594;28;20617;-78
2023/07/26 02:40:10;;;;;;;4.30;2.17;;;12.30;99.90;;;;;;4959128;28;20069;-80
2023/07/26 02:42:36;;;;;;;2.38;2.17;;;12.30;99.90;;;;;;4959728;28;20031;-79
2023/07/26 02:45:02;;;;;;;1.77;1.60;;;12.30;99.90;;;;;;4960337;28;20030;-79
2023/07/26 02:47:32;;;;;;;3.88;1.50;;;12.20;99.90;;;;;;4960750;28;20046;-80
2023/07/26 02:50:00;;;;;;;5.90;1.83;;;12.20;99.90;;;;;;4961492;28;20045;-79
2023/07/26 02:52:25;;;;;;;8.05;1.92;;;12.30;99.90;;;;;;4961310;28;20066;-80
2023/07/26 02:54:51;;;;;;;1.95;1.85;;;12.20;99.90;;;;;;4980947;28;20054;-79
2023/07/26 02:57:17;;;;;;;5.72;1.88;;;12.30;99.90;;;;;;4980845;28;20078;-79
2023/07/26 02:59:42;;;;;;;7.90;1.88;;;12.20;99.90;;;;;;4963070;28;20054;-79
2023/07/26 03:02:08;;;;;;;4.93;2.30;;;12.20;99.90;;;;;;4962959;28;20491;-79
2023/07/26 03:04:33;;;;;;;3.58;1.70;;;12.30;99.90;;;;;;4963651;28;20026;-78
2023/07/26 03:06:59;;;;;;;2.08;1.95;;;12.30;99.90;;;;;;4964625;28;20391;-79
2023/07/26 03:09:24;;;;;;;1.83;1.73;;;12.30;99.90;;;;;;4964633;28;20023;-78
2023/07/26 03:11:50;;;;;;;2.08;1.38;;;12.30;99.90;;;;;;4965115;28;20046;-80
2023/07/26 03:14:16;;;;;;;2.55;1.65;;;12.30;99.90;;;;;;4966019;28;20023;-79
2023/07/26 03:16:42;;;;;;;4.07;2.10;;;12.30;99.90;;;;;;4965307;28;20134;-79
2023/07/26 03:19:07;;;;;;;3.70;2.28;;;12.30;99.90;;;;;;4982889;28;20037;-79
2023/07/26 03:21:33;;;;;;;2.35;1.70;;;12.40;99.90;;;;;;4964754;28;20050;-79
2023/07/26 03:23:58;;;;;;;2.75;1.67;;;12.40;99.90;;;;;;4982807;28;20029;-79
2023/07/26 03:26:24;;;;;;;2.95;1.23;;;12.40;99.90;;;;;;4965739;28;20029;-79
2023/07/26 03:28:49;;;;;;;1.30;1.10;;;12.30;99.90;;;;;;4965805;28;20542;-80
2023/07/26 03:31:15;;;;;;;1.52;1.42;;;12.30;99.90;;;;;;4965861;28;20026;-79
2023/07/26 03:33:41;;;;;;;4.10;2.47;;;12.40;99.90;;;;;;4983370;28;20027;-80
2023/07/26 03:36:06;;;;;;;2.85;2.22;;;12.40;99.90;;;;;;4965515;28;20066;-79
2023/07/26 03:38:32;;;;;;;4.47;1.67;;;12.40;99.90;;;;;;4966086;28;20027;-81
2023/07/26 03:40:57;;;;;;;3.10;2.22;;;12.30;99.90;;;;;;4966483;28;20054;-79
2023/07/26 03:43:23;;;;;;;1.70;1.60;;;12.30;99.90;;;;;;4986734;28;20015;-79
2023/07/26 03:45:50;;;;;;;2.78;1.63;;;12.30;99.90;;;;;;4970766;28;20019;-80
2023/07/26 03:48:15;;;;;;;2.00;1.90;;;12.20;99.90;;;;;;4981780;28;20035;-79
2023/07/26 03:50:41;;;;;;;3.38;1.75;;;12.30;99.90;;;;;;4963881;28;20070;-79
2023/07/26 03:53:06;;;;;;;2.47;1.63;;;12.30;99.90;;;;;;4962649;28;20542;-79
2023/07/26 03:55:32;;;;;;;2.15;1.83;;;12.30;99.90;;;;;;4980613;28;20034;-79
2023/07/26 03:57:59;;;;;;;1.52;1.42;;;12.30;99.90;;;;;;4964828;28;20066;-79
2023/07/26 04:00:24;;;;;;;2.35;2.15;;;12.40;99.90;;;;;;4982341;28;20078;-79
2023/07/26 04:02:50;;;;;;;3.00;1.77;;;12.30;99.90;;;;;;4964476;28;20060;-79
2023/07/26 04:05:18;;;;;;;2.03;1.60;;;12.30;99.90;;;;;;4964563;28;20058;-80
2023/07/26 04:07:44;;;;;;;2.10;1.65;;;12.30;99.90;;;;;;4983153;28;20084;-79
2023/07/26 04:10:10;;;;;;;1.83;1.73;;;12.30;99.90;;;;;;4965391;28;20019;-79
2023/07/26 04:12:35;;;;;;;2.20;1.90;;;12.30;99.90;;;;;;4982438;28;20438;-80
2023/07/26 04:15:01;;;;;;;6.88;2.10;;;12.20;99.90;;;;;;4982895;28;20023;-80
2023/07/26 04:17:27;;;;;;;3.75;1.67;;;12.30;99.90;;;;;;4983128;28;20450;-79
2023/07/26 04:19:52;;;;;;;3.80;2.13;;;12.30;99.90;;;;;;4965551;28;20023;-79
2023/07/26 04:22:18;;;;;;;2.10;1.90;;;12.40;99.90;;;;;;4964034;28;20058;-81
2023/07/26 04:24:46;;;;;;;4.97;2.58;;;12.30;99.90;;;;;;4964965;28;20046;-79
2023/07/26 04:27:11;;;;;;;3.67;1.60;;;12.30;99.90;;;;;;4963422;28;20023;-79
2023/07/26 04:29:37;;;;;;;1.92;1.70;;;12.30;99.90;;;;;;4962657;28;20035;-78
2023/07/26 04:32:06;;;;;;;2.72;2.22;;;12.30;99.90;;;;;;4960720;28;20480;-79
2023/07/26 04:34:31;;;;;;;6.83;2.20;;;12.30;99.90;;;;;;4960168;28;20033;-80
2023/07/26 04:36:57;;;;;;;1.83;1.73;;;12.30;99.90;;;;;;4961289;28;20039;-79
2023/07/26 04:39:23;;;;;;;2.17;1.80;;;12.30;99.90;;;;;;4961423;28;20408;-79
2023/07/26 04:41:48;;;;;;;3.75;1.58;;;12.30;99.90;;;;;;4961771;28;20065;-80
2023/07/26 04:44:15;;;;;;;2.05;1.77;;;12.20;99.90;;;;;;4979778;28;20022;-80
2023/07/26 04:46:41;;;;;;;1.92;1.73;;;12.20;99.90;;;;;;4980585;28;20054;-79
2023/07/26 04:49:07;;;;;;;1.60;1.50;;;12.20;99.90;;;;;;4962633;28;20025;-79
2023/07/26 04:51:32;;;;;;;1.38;1.27;;;12.20;99.90;;;;;;4962787;28;20098;-79
2023/07/26 04:53:59;;;;;;;1.95;1.58;;;12.20;99.90;;;;;;4979985;28;20018;-80
2023/07/26 04:56:26;;;;;;;2.80;1.90;;;12.20;99.90;;;;;;4978714;28;20035;-79
2023/07/26 04:58:52;;;;;;;1.23;1.17;;;12.30;99.90;;;;;;4974555;28;20035;-78
2023/07/26 05:01:19;;;;;;;1.98;1.58;;;12.40;99.90;;;;;;4957456;28;20039;-79
2023/07/26 05:03:45;;;;;;;2.20;1.92;;;12.40;99.90;;;;;;4959050;28;20038;-79
2023/07/26 05:06:11;;;;;;;2.50;1.55;;;12.50;99.90;;;;;;4969621;28;20018;-81
2023/07/26 05:08:37;;;;;;;4.63;2.25;;;12.30;99.90;;;;;;4969030;28;20287;-79
2023/07/26 05:11:05;;;;;;;1.65;1.55;;;12.20;99.90;;;;;;4960775;28;20319;-80
2023/07/26 05:13:30;;;;;;;2.22;1.65;;;12.10;99.90;;;;;;4976815;28;20015;-79
2023/07/26 05:15:56;;;;;;;1.95;1.85;;;12.10;99.90;;;;;;4957747;28;20085;-78
2023/07/26 05:18:22;;;;;;;2.50;1.58;;;12.10;99.90;;;;;;4973395;28;20607;-79
2023/07/26 05:20:51;;;;;;;2.78;1.83;;;12.10;99.90;;;;;;4958243;28;20423;-79
2023/07/26 05:23:17;;;;;;;;;;;12.20;99.90;;;;;;4975109;28;20060;-79
2023/07/26 05:25:42;;;;;;;2.05;1.83;;;12.20;99.90;;;;;;4958683;28;20414;-79
2023/07/26 05:28:08;;;;;;;2.28;1.60;;;12.30;99.90;;;;;;4958228;28;20038;-79
2023/07/26 05:30:38;;;;;;;2.05;1.60;;;12.40;99.90;;;;;;4957856;28;20030;-79
2023/07/26 05:33:05;;;;;;;4.10;2.28;;;12.50;99.90;;;;;;4958289;28;20034;-78
2023/07/26 05:35:30;;;;;;;1.65;1.55;;;12.60;99.90;;;;;;4957578;28;20027;-79
2023/07/26 05:37:56;;;;;;;2.13;1.92;;;12.70;99.90;;;;;;4957617;28;20031;-79
2023/07/26 05:40:21;;;;;;;2.03;1.90;;;12.70;99.90;;;;;;4957569;28;20019;-79
2023/07/26 05:42:47;;;;;;;2.22;1.83;;;12.90;99.90;;;;;;4958169;28;20523;-79
2023/07/26 05:45:12;;;;;;;1.85;1.75;;;13.00;99.90;;;;;;4957397;28;20027;-79
2023/07/26 05:47:39;;;;;;;2.33;2.05;;;13.00;99.90;;;;;;4956425;28;20035;-79
2023/07/26 05:50:06;;;;;;;2.38;1.67;;;13.00;99.90;;;;;;4957575;28;20023;-79
2023/07/26 05:52:32;;;;;;;1.73;1.63;;;13.00;99.90;;;;;;4956155;28;20089;-79
2023/07/26 05:54:58;;;;;;;1.67;1.58;;;13.00;99.90;;;;;;4973553;28;20391;-79
2023/07/26 05:57:24;;;;;;;2.83;1.80;;;13.10;99.90;;;;;;4956550;28;20034;-79
2023/07/26 05:59:50;;;;;;;1.88;1.73;;;13.00;99.90;;;;;;4974024;28;20541;-79
2023/07/26 06:02:15;;;;;;;1.60;1.50;;;13.00;99.90;;;;;;4973600;28;20086;-79
2023/07/26 06:04:41;;;;;;;4.68;2.25;;;13.00;99.90;;;;;;4957055;28;20029;-79
2023/07/26 06:07:07;;;;;;;1.80;1.70;;;13.10;99.90;;;;;;4973654;28;20062;-79
2023/07/26 06:09:36;;;;;;;1.75;1.65;;;13.20;99.90;;;;;;4956473;28;20180;-79
2023/07/26 06:12:01;;;;;;;4.75;1.92;;;13.30;99.90;;;;;;4973685;28;20625;-78
2023/07/26 06:14:28;;;;;;;4.90;2.08;;;13.30;99.90;;;;;;4955929;28;20030;-79
2023/07/26 06:16:54;;;;;;;5.97;2.40;;;13.50;99.90;;;;;;4955197;28;20034;-79
2023/07/26 06:19:21;;;;;;;3.15;1.60;;;13.70;99.90;;;;;;4972247;28;20364;-79
2023/07/26 06:21:46;;;;;;;1.75;1.65;;;14.00;99.90;;;;;;4971943;28;20062;-79
2023/07/26 06:24:12;;;;;;;2.83;1.77;;;14.20;99.90;;;;;;4957359;28;20033;-79
2023/07/26 06:26:38;;;;;;;1.73;1.60;;;14.60;99.90;;;;;;4958041;28;20027;-79
2023/07/26 06:29:04;;;;;;;2.83;1.80;;;14.90;99.90;;;;;;4977601;28;20476;-79
2023/07/26 06:31:30;;;;;;;2.33;2.13;;;14.80;99.90;;;;;;4977288;28;20035;-79
2023/07/26 06:33:55;;;;;;;1.50;1.40;;;14.80;99.90;;;;;;4960100;28;20114;-79
2023/07/26 06:36:21;;;;;;;1.50;1.50;;;14.60;99.90;;;;;;4964720;28;20027;-79
2023/07/26 06:38:47;;;;;;;1.83;1.60;;;14.50;99.90;;;;;;4968083;28;20046;-79
2023/07/26 06:41:12;;;;;;;2.17;1.98;;;14.40;99.90;;;;;;4960820;28;20026;-79
2023/07/26 06:43:38;;;;;;;3.10;1.98;;;14.50;99.90;;;;;;4957012;28;20122;-79
2023/07/26 06:46:03;;;;;;;2.08;1.80;;;14.60;99.90;;;;;;4956507;28;20034;-79
2023/07/26 06:48:29;;;;;;;1.85;1.75;;;14.50;99.90;;;;;;4973617;28;20083;-79
2023/07/26 06:50:55;;;;;;;5.43;1.92;;;14.40;99.90;;;;;;4976259;28;20031;-79
2023/07/26 06:53:20;;;;;;;2.58;2.28;;;14.60;99.90;;;;;;4959963;28;20031;-80
2023/07/26 06:55:46;;;;;;;3.80;2.40;;;14.80;99.90;;;;;;4959283;28;20027;-78
2023/07/26 06:58:12;;;;;;;4.10;2.30;;;14.90;99.90;;;;;;4962560;28;20140;-80
2023/07/26 07:00:37;;;;;;;3.20;2.00;;;14.60;99.90;;;;;;4962794;28;20026;-79
2023/07/26 07:03:03;;;;;;;3.05;2.28;;;14.50;99.90;;;;;;4963028;28;20624;-79
2023/07/26 07:05:30;;;;;;;3.60;2.47;;;14.50;99.90;;;;;;4963623;28;20043;-79
2023/07/26 07:07:56;;;;;;;5.05;2.08;;;14.40;99.90;;;;;;4979215;28;20023;-80
2023/07/26 07:10:22;;;;;;;3.13;2.47;;;14.40;99.90;;;;;;4982967;28;20055;-80
2023/07/26 07:12:49;;;;;;;2.42;2.22;;;14.50;99.90;;;;;;4970202;28;20054;-79
2023/07/26 07:15:15;;;;;;;2.33;2.13;;;14.70;99.90;;;;;;4968151;28;20095;-80
2023/07/26 07:17:41;;;;;;;2.70;1.60;;;14.70;99.90;;;;;;4988172;28;20046;-79
2023/07/26 07:20:08;;;;;;;9.13;3.30;;;14.90;99.90;;;;;;4970478;28;20023;-81
2023/07/26 07:22:34;;;;;;;3.65;2.40;;;15.00;99.90;;;;;;4988972;28;20053;-79
2023/07/26 07:25:00;;;;;;;3.22;2.55;;;15.20;99.90;;;;;;4989525;28;20042;-79
2023/07/26 07:27:25;;;;;;;3.30;2.20;;;15.30;99.90;;;;;;4972713;28;20057;-80
2023/07/26 07:29:51;;;;;;;6.95;2.15;;;15.50;99.90;;;;;;4991039;28;20080;-81
2023/07/26 07:32:17;;;;;;;2.97;2.10;;;15.60;99.90;;;;;;4975273;28;20060;-80
2023/07/26 07:34:43;;;;;;;2.17;1.92;;;15.70;99.90;;;;;;4973880;28;20019;-79
2023/07/26 07:37:09;;;;;;;3.28;2.03;;;16.10;99.90;;;;;;4974880;28;20042;-80
2023/07/26 07:39:35;;;;;;;1.80;1.63;;;16.50;99.90;;;;;;4978128;28;20098;-79
2023/07/26 07:42:01;;;;;;;2.13;2.00;;;16.60;99.90;;;;;;4972412;28;20031;-79
2023/07/26 07:44:30;;;;;;;4.85;2.55;;;16.10;99.90;;;;;;4988978;28;20507;-80
2023/07/26 07:46:56;;;;;;;2.95;1.63;;;16.00;99.90;;;;;;4975562;28;20038;-80
2023/07/26 07:49:22;;;;;;;5.13;2.33;;;17.10;99.90;;;;;;4993007;28;20029;-79
2023/07/26 07:51:48;;;;;;;2.72;1.70;;;17.20;99.90;;;;;;4992896;28;20027;-79
2023/07/26 07:54:13;;;;;;;1.80;1.65;;;16.90;99.90;;;;;;4994519;28;20050;-80
2023/07/26 07:56:39;;;;;;;3.28;1.77;;;17.50;99.90;;;;;;4996109;28;20038;-80
2023/07/26 07:59:05;;;;;;;2.00;1.80;;;18.20;99.90;;;;;;4981802;28;20108;-80
2023/07/26 08:01:31;;;;;;;1.70;1.58;;;19.00;99.90;;;;;;4971267;28;20463;-81
2023/07/26 08:03:59;;;;;;;3.55;1.67;;;20.00;99.90;;;;;;4975197;28;20471;-81
2023/07/26 08:06:28;;;;;;;3.40;1.70;;;20.70;99.90;;;;;;4969305;28;20038;-80
2023/07/26 08:08:53;;;;;;;1.80;1.00;;;20.40;99.90;;;;;;4982389;28;20049;-80
2023/07/26 08:11:19;;;;;;;4.10;1.85;;;19.90;99.90;;;;;;4983574;28;20027;-80
2023/07/26 08:13:44;;;;;;;2.97;2.00;;;20.10;99.90;;;;;;4983230;28;20023;-80
2023/07/26 08:16:11;;;;;;;2.78;1.13;;;20.70;99.90;;;;;;4981969;28;20050;-80
2023/07/26 08:18:37;;;;;;;1.67;1.20;;;21.20;96.60;;;;;;4981362;28;20100;-81
2023/07/26 08:21:03;;;;;;;1.27;1.05;;;21.20;98.10;;;;;;4982880;28;20015;-80
2023/07/26 08:23:32;;;;;;;1.92;0.88;;;21.10;95.30;;;;;;4996903;28;20050;-80
2023/07/26 08:26:04;;;;;;;1.40;1.30;;;20.70;97.80;;;;;;4983587;28;20031;-79
2023/07/26 08:28:30;;;;;;;1.15;1.10;;;19.60;98.50;;;;;;4998479;28;20027;-77
2023/07/26 08:30:56;;;;;;;3.35;1.30;;;18.60;99.90;;;;;;5000401;28;20074;-81
2023/07/26 08:33:22;;;;;;;1.27;1.00;;;17.80;99.90;;;;;;4983296;28;20011;-78
2023/07/26 08:35:48;;;;;;;3.28;1.70;;;17.40;99.90;;;;;;5000169;28;20311;-80
2023/07/26 08:38:13;;;;;;;3.78;1.67;;;17.20;99.90;;;;;;4998530;28;20014;-81
2023/07/26 08:40:47;;;;;;;3.13;1.60;;;16.80;99.90;;;;;;4983416;28;20015;-77
2023/07/26 08:43:13;;;;;;;3.72;1.50;;;17.50;99.90;;;;;;4984142;28;20026;-77
2023/07/26 08:45:42;;;;;;;1.92;1.23;;;18.60;99.90;;;;;;5000179;28;20029;-78
2023/07/26 08:48:08;;;;;;;1.05;1.02;;;19.80;97.80;;;;;;4983349;28;20042;-78
2023/07/26 08:50:35;;;;;;;1.95;1.02;;;20.00;96.80;;;;;;4989652;23;20027;-79
2023/07/26 08:53:04;;;;;;;3.97;2.17;;;19.90;96.90;;;;;;4998485;28;20065;-81
2023/07/26 08:55:35;;;;;;;2.67;1.10;;;19.40;97.70;;;;;;4998336;28;20010;-78
2023/07/26 08:58:21;;;;;;;1.17;1.00;;;18.60;96.90;;;;;;4998121;28;20034;-81
2023/07/26 09:00:51;;;;;;;2.80;1.48;;;17.70;99.90;;;;;;4998956;28;20015;-79
2023/07/26 09:03:17;;;;;;;3.88;1.83;;;17.50;99.90;;;;;;4996660;28;20016;-79
2023/07/26 09:05:45;;;;;;;3.25;1.50;;;17.50;99.90;;;;;;4996817;28;20063;-80
2023/07/26 09:08:11;;;;;;;9.75;2.30;;;17.80;99.90;;;;;;4980477;28;20113;-81
2023/07/26 09:10:38;;;;;;;4.18;3.15;;;17.90;99.90;;;;;;4981478;28;20027;-80
2023/07/26 09:13:14;;;;;;;3.05;1.33;;;18.20;99.90;;;;;;4997627;28;20029;-80
2023/07/26 09:15:42;;;;;;;2.53;1.50;;;18.60;99.70;;;;;;4997018;28;20050;-80
2023/07/26 09:18:09;;;;;;;3.05;1.50;;;18.70;98.00;;;;;;4995773;28;20078;-80
2023/07/26 09:20:36;;;;;;;1.77;1.10;;;18.70;98.90;;;;;;4980226;28;20073;-79
2023/07/26 09:23:08;;;;;;;5.40;0.90;;;18.70;97.30;;;;;;4993766;28;20085;-80
2023/07/26 09:25:43;;;;;;;2.15;1.05;;;18.10;98.90;;;;;;4988793;28;20022;-80
2023/07/26 09:28:13;;;;;;;2.30;1.30;;;18.40;98.80;;;;;;4995659;28;20087;-80
2023/07/26 09:30:41;;;;;;;2.70;1.15;;;18.10;99.70;;;;;;4996207;28;20010;-79
2023/07/26 09:33:10;;;;;;;2.03;1.40;;;17.70;99.90;;;;;;4994135;28;20029;-80
2023/07/26 09:36:02;;;;;;;1.70;1.47;;;17.50;99.90;;;;;;4975671;28;20079;-80
2023/07/26 09:38:29;;;;;;;4.38;1.77;;;17.20;99.90;;;;;;4969325;28;20335;-81
2023/07/26 09:40:55;;;;;;;1.50;1.25;;;17.00;99.90;;;;;;4993054;28;20050;-78
2023/07/26 09:43:31;;;;;;;1.50;1.38;;;17.10;99.90;;;;;;4991806;28;20439;-80
2023/07/26 09:46:05;;;;;;;0.88;0.88;;;17.00;99.90;;;;;;4990539;28;20051;-80
2023/07/26 09:48:31;;;;;;;1.48;1.35;;;17.10;99.90;;;;;;4989457;28;20038;-80
2023/07/26 09:51:03;;;;;;;1.70;1.60;;;16.90;99.90;;;;;;4921994;28;1163333;-80
2023/07/26 09:53:32;;;;;;;1.80;1.70;;;16.80;99.90;;;;;;4975476;28;20113;-79
2023/07/26 09:55:58;;;;;;;1.63;1.38;;;16.10;99.90;;;;;;4962619;28;20049;-79
2023/07/26 09:58:27;;;;;;;2.13;0.93;;;15.70;99.90;;;;;;4958844;28;20034;-78
2023/07/26 10:00:57;;;;;;;1.70;1.60;;;15.40;99.90;;;;;;4976031;28;20019;-79
2023/07/26 10:03:23;;;;;;;2.78;1.25;;;15.30;99.90;;;;;;4973610;28;20031;-78
2023/07/26 10:05:52;;;;;;;1.60;1.50;;;15.40;99.90;;;;;;4974713;28;20031;-79
2023/07/26 10:08:19;;;;;;;1.58;1.45;;;15.60;99.90;;;;;;4958633;28;20310;-80
2023/07/26 10:10:50;;;;;;;2.10;1.95;;;15.90;99.90;;;;;;4980702;28;20022;-79
2023/07/26 10:13:18;;;;;;;1.30;1.20;;;16.20;99.90;;;;;;4981989;28;20057;-79
2023/07/26 10:15:47;;;;;;;2.85;1.98;;;16.20;99.90;;;;;;4959756;28;20039;-80
2023/07/26 10:18:16;;;;;;;3.38;1.42;;;16.40;99.90;;;;;;4993335;28;20034;-81
2023/07/26 10:20:43;;;;;;;1.42;1.33;;;16.50;99.90;;;;;;4996207;28;20027;-80
2023/07/26 10:23:11;;;;;;;1.10;1.10;;;16.50;99.90;;;;;;4996658;28;20027;-80
2023/07/26 10:25:37;;;;;;;1.33;1.23;;;16.50;99.90;;;;;;4994346;28;20083;-80
2023/07/26 10:28:04;;;;;;;1.70;1.58;;;16.50;99.90;;;;;;4971768;28;20380;-80
2023/07/26 10:30:30;;;;;;;1.42;1.20;;;16.40;99.90;;;;;;4987362;28;20031;-80
2023/07/26 10:32:59;;;;;;;2.58;1.50;;;16.40;99.90;;;;;;4990197;28;20022;-81
2023/07/26 10:35:34;;;;;;;;;;;16.50;99.90;;;;;;4979884;28;20030;-79
2023/07/26 10:38:03;;;;;;;2.60;1.63;;;17.20;99.90;;;;;;4978461;28;19965;-80
2023/07/26 10:40:38;;;;;;;2.13;1.38;;;17.90;99.90;;;;;;4999221;28;20053;-81
2023/07/26 10:43:19;;;;;;;1.95;1.23;;;18.20;99.90;;;;;;4998336;28;20042;-80
2023/07/26 10:45:46;;;;;;;1.40;1.00;;;18.80;99.90;;;;;;4994790;28;20018;-80
2023/07/26 10:48:36;;;;;;;1.00;1.00;;;18.70;99.90;;;;;;4997545;28;20034;-79
2023/07/26 10:51:33;;;;;;;0.70;0.70;;;18.50;99.90;;;;;;4998618;28;20041;-80
2023/07/26 10:54:00;;;;;;;2.25;1.00;;;18.70;99.90;;;;;;4997830;28;20026;-78
2023/07/26 10:56:27;;;;;;;3.92;1.48;;;18.50;99.90;;;;;;4986199;28;20027;-80
2023/07/26 10:58:56;;;;;;;2.88;0.63;;;18.30;98.20;;;;;;5002559;28;20042;-81
2023/07/26 11:01:31;;;;;;;1.27;1.00;;;18.30;98.00;;;;;;4986411;28;20083;-78
2023/07/26 11:03:58;;;;;;;5.30;1.60;;;18.40;98.50;;;;;;4986317;28;20050;-78
2023/07/26 11:06:51;;;;;;;1.25;1.15;;;18.40;98.30;;;;;;5002105;28;20026;-78
2023/07/26 11:09:25;;;;;;;1.13;1.02;;;19.20;99.90;;;;;;4980225;28;20082;-82
2023/07/26 11:12:13;;;;;;;0.90;0.90;;;20.40;98.60;;;;;;5000393;28;20019;-78
2023/07/26 11:14:39;;;;;;;1.38;1.15;;;19.90;97.60;;;;;;5001505;28;20023;-79
2023/07/26 11:17:15;;;;;;;1.10;0.85;;;19.20;97.30;;;;;;5001194;28;20030;-78
2023/07/26 11:19:49;;;;;;;1.05;0.95;;;19.00;97.30;;;;;;5000594;28;20014;-79
2023/07/26 11:22:15;;;;;;;1.48;1.38;;;18.40;97.10;;;;;;5000459;28;20058;-79
2023/07/26 11:24:41;;;;;;;0.88;0.88;;;18.70;96.90;;;;;;5001702;28;20018;-79
2023/07/26 11:27:07;;;;;;;1.20;1.08;;;19.80;98.70;;;;;;4978331;28;20019;-83
2023/07/26 11:29:33;;;;;;;1.00;0.98;;;20.50;95.60;;;;;;4958480;28;20118;-81
2023/07/26 11:31:59;;;;;;;3.03;0.82;;;21.10;93.30;;;;;;4975338;28;20042;-81
2023/07/26 11:37:38;;;;;;;0.70;0.70;;;20.50;91.40;;;;;;4998027;28;20030;-78
2023/07/26 11:40:06;;;;;;;1.88;0.85;;;19.90;91.30;;;;;;4998986;28;20029;-82
2023/07/26 11:42:35;;;;;;;0.95;0.90;;;20.50;93.40;;;;;;4977493;28;20033;-82
2023/07/26 11:45:05;;;;;;;2.50;1.10;;;21.50;91.30;;;;;;4961161;28;20058;-81
2023/07/26 11:47:37;;;;;;;;;;;21.70;88.40;;;;;;4974961;28;20098;-84
2023/07/26 11:50:03;;;;;;;0.88;0.85;;;22.50;84.10;;;;;;4973790;28;19999;-84
2023/07/26 11:52:29;;;;;;;0.93;0.60;;;22.90;80.60;;;;;;4993219;28;20118;-79
2023/07/26 11:55:00;;;;;;;1.52;1.42;;;21.30;85.70;;;;;;5001129;28;20011;-78
2023/07/26 11:57:26;;;;;;;1.95;0.80;;;21.10;88.10;;;;;;4996894;28;20054;-79
2023/07/26 12:00:40;;;;;;;1.40;0.60;;;20.70;89.10;;;;;;5000952;28;20030;-79
2023/07/26 12:03:07;;;;;;;9.18;1.88;;;20.50;87.40;;;;;;4984157;28;20011;-78
2023/07/26 12:05:33;;;;;;;1.20;0.80;;;20.40;90.00;;;;;;4981496;28;20061;-84
2023/07/26 12:08:05;;;;;;;0.85;0.70;;;21.10;88.80;;;;;;4976295;28;20065;-83
2023/07/26 12:10:41;;;;;;;1.92;0.90;;;22.10;85.60;;;;;;4956029;28;20019;-82
2023/07/26 12:13:29;;;;;;;3.13;1.00;;;23.10;85.90;;;;;;4987984;28;20027;-82
2023/07/26 12:16:02;;;;;;;1.45;0.75;;;22.90;82.50;;;;;;4987754;28;20088;-80
2023/07/26 12:18:28;;;;;;;1.27;1.17;;;20.90;84.20;;;;;;5000742;28;20019;-80
2023/07/26 12:20:58;;;;;;;1.55;1.10;;;20.30;87.30;;;;;;4984371;28;20011;-78
2023/07/26 12:23:29;;;;;;;2.35;0.88;;;19.60;89.90;;;;;;4992575;28;20074;-79
2023/07/26 12:26:00;;;;;;;1.25;0.73;;;19.50;85.50;;;;;;5000418;28;20053;-78
2023/07/26 12:28:26;;;;;;;0.70;0.70;;;20.00;86.10;;;;;;4984312;28;20037;-79
2023/07/26 12:30:56;;;;;;;1.17;0.85;;;21.50;80.80;;;;;;5001511;28;20026;-79
2023/07/26 12:33:23;;;;;;;0.80;0.60;;;21.10;81.30;;;;;;5000386;28;20018;-78
2023/07/26 12:35:54;;;;;;;1.35;0.90;;;21.20;80.60;;;;;;5000642;28;20041;-80
2023/07/26 12:38:23;;;;;;;1.73;0.80;;;20.60;84.30;;;;;;5000234;28;20015;-78
2023/07/26 12:40:52;;;;;;;1.65;1.08;;;20.60;85.60;;;;;;4987178;28;20053;-82
2023/07/26 12:43:34;;;;;;;1.35;0.60;;;21.70;84.30;;;;;;4955556;28;20516;-82
2023/07/26 12:46:22;;;;;;;1.05;0.70;;;22.50;77.00;;;;;;4978068;28;20035;-80
2023/07/26 12:48:48;;;;;;;3.22;0.80;;;22.60;75.00;;;;;;4983778;28;20038;-82
2023/07/26 12:51:15;;;;;;;1.88;1.33;;;21.90;80.00;;;;;;4989255;28;20102;-79
2023/07/26 12:53:41;;;;;;;0.75;0.60;;;22.20;77.00;;;;;;4951106;28;20125;-82